Time;durP1;ratioP1;P1;durP2;ratioP2;P2;SDS_P1;SDS_P2;PMS_P1;PMS_P2;Temp;Humidity;BMP_temperature;BMP_pressure;BME280_temperature;BME280_humidity;BME280_pressure;Samples;Min_cycle;Max_cycle;Signal;HPM_P1;HPM_P2
2022/10/28 00:00:49;;;;;;;0.30;0.30;;;;;;;11.45;100.00;99419.84;5011767;28;20479;-77
2022/10/28 00:03:15;;;;;;;0.30;0.30;;;;;;;11.41;100.00;99415.94;4994122;28;20037;-76
2022/10/28 00:05:40;;;;;;;0.20;0.20;;;;;;;11.40;100.00;99419.66;4991943;28;20037;-77
2022/10/28 00:08:06;;;;;;;0.30;0.30;;;;;;;11.41;100.00;99403.31;5026889;28;20029;-78
2022/10/28 00:10:32;;;;;;;0.30;0.30;;;;;;;11.39;100.00;99402.69;5027393;28;20025;-76
2022/10/28 00:12:58;;;;;;;0.30;0.30;;;;;;;11.34;100.00;99394.41;5007131;28;20033;-75
2022/10/28 00:15:23;;;;;;;0.30;0.30;;;;;;;11.33;100.00;99387.41;4991236;28;20384;-76
2022/10/28 00:17:49;;;;;;;0.30;0.30;;;;;;;11.26;100.00;99383.09;5010540;28;20387;-76
2022/10/28 00:20:15;;;;;;;0.30;0.30;;;;;;;11.29;100.00;99401.50;5022821;28;20370;-76
2022/10/28 00:22:41;;;;;;;0.30;0.30;;;;;;;11.24;100.00;99383.28;4993065;28;20038;-77
2022/10/28 00:25:07;;;;;;;0.20;0.20;;;;;;;11.29;100.00;99378.09;5006654;28;20472;-76
2022/10/28 00:27:33;;;;;;;0.30;0.30;;;;;;;11.29;100.00;99375.41;4993245;28;20045;-76
2022/10/28 00:29:59;;;;;;;0.30;0.30;;;;;;;11.32;100.00;99376.84;4996766;28;20384;-77
2022/10/28 00:32:28;;;;;;;0.30;0.30;;;;;;;11.33;100.00;99373.94;5011918;28;20052;-76
2022/10/28 00:34:54;;;;;;;0.30;0.30;;;;;;;11.28;100.00;99368.38;5024778;28;20041;-76
2022/10/28 00:37:19;;;;;;;0.30;0.30;;;;;;;11.29;100.00;99372.72;5025278;28;20037;-77
2022/10/28 00:39:45;;;;;;;0.30;0.30;;;;;;;11.29;100.00;99374.59;5009728;28;20037;-77
2022/10/28 00:42:11;;;;;;;0.30;0.30;;;;;;;11.26;100.00;99337.34;5011202;28;20048;-75
2022/10/28 00:44:53;;;;;;;0.30;0.30;;;;;;;11.21;100.00;99335.28;5009090;28;20202;-76
2022/10/28 00:47:37;;;;;;;0.30;0.30;;;;;;;11.26;100.00;99340.84;5010733;28;20041;-76
2022/10/28 00:50:08;;;;;;;0.30;0.30;;;;;;;11.24;100.00;99332.16;5026650;28;20072;-76
2022/10/28 00:52:34;;;;;;;0.30;0.30;;;;;;;11.21;100.00;99329.91;5032297;28;20040;-76
2022/10/28 00:55:00;;;;;;;0.30;0.30;;;;;;;11.25;100.00;99317.69;5027868;28;20029;-77
2022/10/28 00:57:30;;;;;;;0.30;0.30;;;;;;;11.18;100.00;99303.44;5026919;28;20037;-77
2022/10/28 00:59:57;;;;;;;0.22;0.22;;;;;;;11.21;100.00;99297.63;5028040;28;20022;-78
2022/10/28 01:02:23;;;;;;;0.30;0.30;;;;;;;11.24;100.00;99299.88;4995610;28;20033;-78
2022/10/28 01:04:49;;;;;;;0.30;0.30;;;;;;;11.22;100.00;99294.72;5010811;28;20033;-76
2022/10/28 01:07:15;;;;;;;0.30;0.30;;;;;;;11.22;100.00;99289.34;4993264;28;20040;-76
2022/10/28 01:09:40;;;;;;;0.30;0.30;;;;;;;11.22;100.00;99285.84;4996335;28;20030;-76
2022/10/28 01:12:39;;;;;;;0.30;0.30;;;;;;;11.22;100.00;99283.16;4991649;28;20049;-76
2022/10/28 01:15:35;;;;;;;0.30;0.30;;;;;;;11.14;100.00;99289.59;5011249;28;20033;-76
2022/10/28 01:18:24;;;;;;;0.30;0.30;;;;;;;11.13;100.00;99322.09;5024691;28;20021;-78
2022/10/28 01:21:08;;;;;;;0.30;0.30;;;;;;;11.12;100.00;99317.75;5014757;28;20117;-77
2022/10/28 01:23:37;;;;;;;0.30;0.30;;;;;;;11.10;100.00;99304.50;5032030;28;20064;-76
2022/10/28 01:26:27;;;;;;;0.30;0.30;;;;;;;11.12;100.00;99298.94;5026321;28;20463;-77
2022/10/28 01:29:05;;;;;;;0.30;0.30;;;;;;;11.17;100.00;99296.41;5015037;28;20029;-77
2022/10/28 01:31:44;;;;;;;0.30;0.30;;;;;;;11.14;100.00;99275.31;5028634;28;20110;-78
2022/10/28 01:34:28;;;;;;;0.30;0.30;;;;;;;11.14;100.00;99281.53;5011202;28;20049;-76
2022/10/28 01:37:00;;;;;;;0.30;0.30;;;;;;;11.11;100.00;99279.25;5025953;28;20079;-76
2022/10/28 01:39:47;;;;;;;0.30;0.30;;;;;;;11.08;100.00;99279.69;5031993;28;20069;-77
2022/10/28 01:42:25;;;;;;;0.30;0.30;;;;;;;10.97;100.00;99275.81;5005704;28;20065;-76
2022/10/28 01:44:57;;;;;;;0.32;0.32;;;;;;;11.02;100.00;99277.06;4991792;28;20091;-76
2022/10/28 01:47:31;;;;;;;0.30;0.30;;;;;;;10.96;100.00;99263.41;5026020;28;20041;-77
2022/10/28 01:50:07;;;;;;;0.30;0.30;;;;;;;10.97;100.00;99269.63;4998018;28;20128;-77
2022/10/28 01:52:33;;;;;;;0.30;0.30;;;;;;;10.99;100.00;99262.97;5028207;28;20041;-79
2022/10/28 01:55:29;;;;;;;0.30;0.30;;;;;;;11.05;100.00;99245.16;5013885;28;20037;-79
2022/10/28 01:57:57;;;;;;;0.30;0.30;;;;;;;11.09;100.00;99232.94;5028782;28;20094;-76
2022/10/28 02:00:23;;;;;;;0.30;0.30;;;;;;;11.12;100.00;99231.69;5011425;28;20029;-77
2022/10/28 02:02:49;;;;;;;0.30;0.30;;;;;;;11.14;100.00;99225.03;4994474;28;20044;-78
2022/10/28 02:05:47;;;;;;;0.30;0.30;;;;;;;11.10;100.00;99225.69;5014906;28;20167;-77
2022/10/28 02:08:19;;;;;;;0.30;0.30;;;;;;;11.07;100.00;99209.97;4991803;28;20042;-78
2022/10/28 02:10:59;;;;;;;0.30;0.30;;;;;;;11.08;100.00;99200.88;5015254;28;20064;-76
2022/10/28 02:13:52;;;;;;;0.30;0.30;;;;;;;10.95;100.00;99199.06;5008261;28;20472;-75
2022/10/28 02:16:27;;;;;;;0.30;0.30;;;;;;;10.93;100.00;99207.38;5011451;28;20048;-76
2022/10/28 02:19:07;;;;;;;0.30;0.30;;;;;;;10.99;100.00;99230.72;5046143;28;20064;-75
2022/10/28 02:22:09;;;;;;;0.30;0.30;;;;;;;10.96;100.00;99239.22;4997446;28;20037;-75
2022/10/28 02:24:44;;;;;;;0.30;0.30;;;;;;;10.93;100.00;99263.03;5014590;28;20041;-77
2022/10/28 02:27:30;;;;;;;0.35;0.35;;;;;;;10.93;100.00;99263.84;5028810;28;20034;-76
2022/10/28 02:30:08;;;;;;;0.30;0.30;;;;;;;10.91;100.00;99262.41;5025284;28;20056;-77
2022/10/28 02:32:41;;;;;;;0.30;0.30;;;;;;;10.89;100.00;99261.81;5029400;28;20045;-76
2022/10/28 02:35:12;;;;;;;0.30;0.30;;;;;;;10.88;100.00;99268.22;4994653;28;20030;-76
2022/10/28 02:37:39;;;;;;;0.30;0.30;;;;;;;10.86;100.00;99267.59;5012582;28;20128;-77
2022/10/28 02:40:08;;;;;;;0.30;0.30;;;;;;;10.88;100.00;99284.38;4996879;28;20037;-76
2022/10/28 02:42:37;;;;;;;0.30;0.30;;;;;;;10.82;100.00;99283.31;5028401;28;20035;-76
2022/10/28 02:45:24;;;;;;;0.40;0.40;;;;;;;10.87;100.00;99296.13;4993564;28;20087;-76
2022/10/28 02:47:57;;;;;;;0.30;0.30;;;;;;;10.85;100.00;99293.69;4987823;28;20139;-77
2022/10/28 02:50:33;;;;;;;0.30;0.30;;;;;;;10.86;100.00;99303.38;5020541;28;20107;-76
2022/10/28 02:53:01;;;;;;;0.30;0.30;;;;;;;10.86;100.00;99306.06;5024723;28;20045;-77
2022/10/28 02:55:32;;;;;;;0.30;0.30;;;;;;;10.90;100.00;99299.25;4992745;28;20125;-75
2022/10/28 02:57:58;;;;;;;0.30;0.30;;;;;;;10.85;100.00;99293.69;5027662;28;20045;-76
2022/10/28 03:00:24;;;;;;;0.30;0.30;;;;;;;10.87;100.00;99283.50;5011176;28;20247;-76
2022/10/28 03:02:50;;;;;;;0.30;0.30;;;;;;;10.88;100.00;99295.94;5031288;28;20095;-76
2022/10/28 03:05:16;;;;;;;0.30;0.30;;;;;;;10.86;100.00;99292.63;5001572;28;20558;-77
2022/10/28 03:07:42;;;;;;;0.30;0.30;;;;;;;10.83;100.00;99289.56;4997399;28;20120;-77
2022/10/28 03:10:08;;;;;;;0.30;0.30;;;;;;;10.88;100.00;99292.44;5012320;28;20112;-76
2022/10/28 03:12:33;;;;;;;0.30;0.30;;;;;;;10.85;100.00;99285.63;4996696;28;20076;-76
2022/10/28 03:15:00;;;;;;;0.30;0.30;;;;;;;10.83;100.00;99293.06;4997334;28;20029;-76
2022/10/28 03:17:26;;;;;;;0.30;0.30;;;;;;;10.83;100.00;99297.63;5029695;28;20029;-76
2022/10/28 03:19:51;;;;;;;0.30;0.30;;;;;;;10.83;100.00;99298.44;5029082;28;20031;-76
2022/10/28 03:22:17;;;;;;;0.30;0.30;;;;;;;10.72;100.00;99281.09;4990006;28;20041;-78
2022/10/28 03:24:43;;;;;;;0.30;0.30;;;;;;;10.76;100.00;99295.75;4997372;28;20026;-76
2022/10/28 03:27:08;;;;;;;0.30;0.30;;;;;;;10.75;100.00;99315.63;5011132;28;20052;-78
2022/10/28 03:29:34;;;;;;;0.30;0.30;;;;;;;10.62;100.00;99318.38;4994937;28;20033;-76
2022/10/28 03:31:59;;;;;;;0.30;0.30;;;;;;;10.62;100.00;99344.41;4995269;28;20075;-76
2022/10/28 03:34:25;;;;;;;0.30;0.30;;;;;;;10.52;100.00;99329.53;5027707;28;20233;-76
2022/10/28 03:36:51;;;;;;;0.30;0.30;;;;;;;10.49;100.00;99343.41;4994739;28;20087;-75
2022/10/28 03:39:16;;;;;;;0.30;0.30;;;;;;;10.34;100.00;99334.75;4992962;28;20041;-76
2022/10/28 03:41:42;;;;;;;0.30;0.30;;;;;;;10.38;100.00;99345.91;5055590;28;20025;-77
2022/10/28 03:44:07;;;;;;;0.40;0.40;;;;;;;10.35;100.00;99347.16;5026880;28;20037;-76
2022/10/28 03:46:33;;;;;;;0.30;0.30;;;;;;;10.29;100.00;99350.66;5010748;28;20049;-76
2022/10/28 03:48:59;;;;;;;0.30;0.30;;;;;;;10.31;100.00;99345.91;5029839;28;20468;-79
2022/10/28 03:51:24;;;;;;;0.30;0.30;;;;;;;10.26;100.00;99343.81;5025616;28;20064;-77
2022/10/28 03:53:50;;;;;;;0.30;0.30;;;;;;;10.24;100.00;99339.69;4995600;28;20092;-76
2022/10/28 03:56:15;;;;;;;0.30;0.30;;;;;;;10.25;100.00;99347.53;4991490;28;20026;-75
2022/10/28 03:58:41;;;;;;;0.32;0.32;;;;;;;10.24;100.00;99356.66;4997701;28;20371;-76
2022/10/28 04:01:07;;;;;;;0.30;0.30;;;;;;;10.26;100.00;99364.47;4994801;28;20029;-76
2022/10/28 04:03:32;;;;;;;0.30;0.30;;;;;;;10.22;100.00;99355.22;5012458;28;20567;-75
2022/10/28 04:05:58;;;;;;;0.30;0.30;;;;;;;10.23;100.00;99367.59;5010420;28;20506;-76
2022/10/28 04:08:24;;;;;;;0.30;0.30;;;;;;;10.22;100.00;99372.16;4993020;28;20510;-76
2022/10/28 04:10:49;;;;;;;0.35;0.35;;;;;;;10.21;100.00;99366.97;4993844;28;20041;-76
2022/10/28 04:13:16;;;;;;;0.30;0.30;;;;;;;10.21;100.00;99378.53;4996711;28;20365;-77
2022/10/28 04:15:41;;;;;;;0.30;0.30;;;;;;;10.24;100.00;99391.56;5028266;28;20029;-76
2022/10/28 04:18:07;;;;;;;0.30;0.30;;;;;;;10.21;100.00;99389.28;5028877;28;20051;-75
2022/10/28 04:20:33;;;;;;;0.30;0.30;;;;;;;10.23;100.00;99392.59;5015072;28;20613;-78
2022/10/28 04:22:59;;;;;;;0.30;0.30;;;;;;;10.20;100.00;99387.63;4992583;28;20041;-76
2022/10/28 04:25:26;;;;;;;0.35;0.35;;;;;;;10.17;100.00;99389.91;5010085;28;20048;-75
2022/10/28 04:27:52;;;;;;;0.30;0.30;;;;;;;10.15;100.00;99395.47;5023789;28;20044;-76
2022/10/28 04:30:18;;;;;;;0.40;0.40;;;;;;;10.09;100.00;99399.00;5023373;28;20049;-76
2022/10/28 04:32:44;;;;;;;0.30;0.30;;;;;;;10.00;100.00;99395.69;4982336;28;20114;-75
2022/10/28 04:35:10;;;;;;;0.30;0.30;;;;;;;10.01;100.00;99421.50;4986685;28;20040;-77
2022/10/28 04:37:36;;;;;;;0.30;0.30;;;;;;;10.00;100.00;99440.50;5024218;28;20041;-79
2022/10/28 04:40:02;;;;;;;0.30;0.30;;;;;;;9.95;100.00;99440.28;4992097;28;20506;-77
2022/10/28 04:42:28;;;;;;;0.30;0.30;;;;;;;9.95;100.00;99437.59;5005882;28;20041;-79
2022/10/28 04:44:53;;;;;;;0.30;0.30;;;;;;;9.79;100.00;99425.38;5020966;28;20026;-78
2022/10/28 04:47:40;;;;;;;0.30;0.30;;;;;;;9.84;100.00;99442.56;5025008;28;20092;-78
2022/10/28 04:50:06;;;;;;;0.30;0.30;;;;;;;9.83;100.00;99442.75;4992125;28;20029;-78
2022/10/28 04:52:31;;;;;;;0.30;0.30;;;;;;;9.82;100.00;99465.28;4997378;28;20033;-77
2022/10/28 04:54:57;;;;;;;0.30;0.30;;;;;;;9.81;100.00;99474.34;4998453;28;20037;-77
2022/10/28 04:57:23;;;;;;;0.32;0.32;;;;;;;9.78;100.00;99466.69;4995392;28;20030;-78
2022/10/28 04:59:48;;;;;;;0.30;0.30;;;;;;;9.80;100.00;99475.38;4998445;28;20042;-77
2022/10/28 05:02:16;;;;;;;0.30;0.30;;;;;;;9.85;100.00;99486.34;5027390;28;20029;-77
2022/10/28 05:04:42;;;;;;;0.30;0.30;;;;;;;9.94;100.00;99495.84;5016061;28;20103;-77
2022/10/28 05:07:08;;;;;;;0.35;0.35;;;;;;;9.98;100.00;99502.47;5032582;28;20456;-77
2022/10/28 05:09:33;;;;;;;0.30;0.30;;;;;;;9.90;100.00;99505.34;4995477;28;20071;-77
2022/10/28 05:11:59;;;;;;;0.30;0.30;;;;;;;9.77;100.00;99508.00;5031285;28;20455;-76
2022/10/28 05:14:25;;;;;;;0.30;0.30;;;;;;;9.71;100.00;99520.34;4997428;28;20033;-76
2022/10/28 05:16:50;;;;;;;0.30;0.30;;;;;;;9.71;100.00;99520.34;5010993;28;20080;-79
2022/10/28 05:19:16;;;;;;;0.30;0.30;;;;;;;9.73;100.00;99523.66;5008680;28;20048;-77
2022/10/28 05:21:41;;;;;;;0.30;0.30;;;;;;;9.73;100.00;99538.94;5022871;28;20041;-78
2022/10/28 05:24:07;;;;;;;0.30;0.30;;;;;;;9.66;100.00;99530.88;4994465;28;20099;-78
2022/10/28 05:26:33;;;;;;;0.30;0.30;;;;;;;9.60;100.00;99534.34;4997232;28;20049;-77
2022/10/28 05:28:59;;;;;;;0.30;0.30;;;;;;;9.60;100.00;99545.91;5023338;28;20449;-77
2022/10/28 05:31:24;;;;;;;0.30;0.30;;;;;;;9.63;100.00;99544.66;5007008;28;20479;-77
2022/10/28 05:33:50;;;;;;;0.30;0.30;;;;;;;9.55;100.00;99536.78;5023835;28;20026;-77
2022/10/28 05:36:15;;;;;;;0.30;0.30;;;;;;;9.69;100.00;99554.63;5022315;28;20587;-77
2022/10/28 05:38:44;;;;;;;0.30;0.30;;;;;;;9.68;100.00;99566.38;5026897;28;20079;-78
2022/10/28 05:41:10;;;;;;;0.40;0.40;;;;;;;9.73;100.00;99571.16;5017318;28;20425;-77
2022/10/28 05:43:35;;;;;;;0.30;0.30;;;;;;;9.70;100.00;99575.06;5020811;28;20025;-81
2022/10/28 05:46:02;;;;;;;0.40;0.40;;;;;;;9.57;100.00;99564.25;5027566;28;20383;-77
2022/10/28 05:48:28;;;;;;;0.40;0.40;;;;;;;9.40;100.00;99569.13;4993179;28;20392;-77
2022/10/28 05:50:53;;;;;;;0.30;0.30;;;;;;;9.34;100.00;99577.94;5022978;28;20042;-77
2022/10/28 05:53:19;;;;;;;0.30;0.30;;;;;;;9.25;100.00;99578.09;5025033;28;20036;-79
2022/10/28 05:55:47;;;;;;;0.40;0.40;;;;;;;9.03;100.00;99566.59;5005639;28;20029;-78
2022/10/28 05:58:13;;;;;;;0.30;0.30;;;;;;;9.02;100.00;99589.09;5020618;28;20037;-78
2022/10/28 06:00:39;;;;;;;0.30;0.30;;;;;;;8.99;100.00;99583.28;5022914;28;20041;-79
2022/10/28 06:03:09;;;;;;;0.30;0.30;;;;;;;8.98;100.00;99593.19;5026033;28;20033;-77
2022/10/28 06:05:36;;;;;;;0.30;0.30;;;;;;;8.85;100.00;99586.88;5007380;28;20037;-78
2022/10/28 06:08:05;;;;;;;0.30;0.30;;;;;;;8.84;100.00;99602.13;5029641;28;20177;-77
2022/10/28 06:10:31;;;;;;;0.30;0.30;;;;;;;8.78;100.00;99606.41;5004604;28;20045;-76
2022/10/28 06:12:57;;;;;;;0.30;0.30;;;;;;;8.82;100.00;99604.19;4990646;28;20032;-77
2022/10/28 06:15:26;;;;;;;0.30;0.30;;;;;;;8.82;100.00;99604.19;5006067;28;20061;-77
2022/10/28 06:17:51;;;;;;;0.40;0.40;;;;;;;8.79;100.00;99610.75;5007649;28;20107;-79
2022/10/28 06:20:17;;;;;;;0.30;0.30;;;;;;;8.80;100.00;99616.94;5021001;28;20734;-76
2022/10/28 06:22:48;;;;;;;0.30;0.30;;;;;;;8.79;100.00;99617.97;5030931;28;20040;-75
2022/10/28 06:25:15;;;;;;;0.30;0.30;;;;;;;8.72;100.00;99622.44;5022484;28;20029;-76
2022/10/28 06:27:41;;;;;;;0.30;0.30;;;;;;;8.73;100.00;99621.41;5025363;28;20022;-75
2022/10/28 06:30:07;;;;;;;0.40;0.40;;;;;;;8.73;100.00;99630.28;4992945;28;20467;-76
2022/10/28 06:32:32;;;;;;;0.30;0.30;;;;;;;8.63;100.00;99627.09;5011500;28;20041;-75
2022/10/28 06:34:58;;;;;;;0.30;0.30;;;;;;;8.56;100.00;99631.53;4996853;28;20030;-75
2022/10/28 06:37:24;;;;;;;0.30;0.30;;;;;;;8.53;100.00;99629.25;4999054;28;20029;-75
2022/10/28 06:39:51;;;;;;;0.30;0.30;;;;;;;8.57;100.00;99631.38;4995919;28;20053;-77
2022/10/28 06:42:18;;;;;;;0.40;0.40;;;;;;;8.51;100.00;99625.94;4997291;28;20041;-77
2022/10/28 06:44:44;;;;;;;0.30;0.30;;;;;;;8.43;100.00;99624.19;4984792;28;20068;-78
2022/10/28 06:47:09;;;;;;;0.30;0.30;;;;;;;8.49;100.00;99639.50;5026464;28;20056;-77
2022/10/28 06:49:35;;;;;;;0.30;0.30;;;;;;;8.46;100.00;99639.88;4994975;28;20048;-78
2022/10/28 06:52:00;;;;;;;0.30;0.30;;;;;;;8.54;100.00;99652.34;5011709;28;20056;-77
2022/10/28 06:54:26;;;;;;;0.30;0.30;;;;;;;8.52;100.00;99657.03;4988453;28;20444;-77
2022/10/28 06:56:52;;;;;;;0.40;0.40;;;;;;;8.41;100.00;99666.41;5022061;28;20041;-79
2022/10/28 06:59:17;;;;;;;0.30;0.30;;;;;;;8.34;100.00;99660.97;5011637;28;20124;-78
2022/10/28 07:01:43;;;;;;;0.30;0.30;;;;;;;8.34;100.00;99677.03;4995296;28;20039;-77
2022/10/28 07:04:12;;;;;;;0.35;0.35;;;;;;;8.33;100.00;99674.53;4997330;28;20033;-76
2022/10/28 07:06:38;;;;;;;0.30;0.30;;;;;;;8.27;100.00;99668.06;5013029;28;20438;-78
2022/10/28 07:09:05;;;;;;;0.30;0.30;;;;;;;8.38;100.00;99680.97;5011903;28;20107;-77
2022/10/28 07:11:30;;;;;;;0.30;0.30;;;;;;;8.32;100.00;99672.88;5008266;28;20042;-77
2022/10/28 07:13:56;;;;;;;0.30;0.30;;;;;;;8.41;100.00;99685.16;5007880;28;20040;-78
2022/10/28 07:16:21;;;;;;;0.30;0.30;;;;;;;8.45;100.00;99699.03;4992793;28;20041;-77
2022/10/28 07:18:47;;;;;;;0.38;0.38;;;;;;;8.43;100.00;99703.72;4991749;28;20487;-77
2022/10/28 07:21:13;;;;;;;0.30;0.30;;;;;;;8.39;100.00;99703.28;5029066;28;20029;-77
2022/10/28 07:23:39;;;;;;;0.30;0.30;;;;;;;8.43;100.00;99717.13;4990200;28;20491;-77
2022/10/28 07:26:04;;;;;;;0.30;0.30;;;;;;;8.48;100.00;99717.41;5008077;28;20487;-78
2022/10/28 07:28:30;;;;;;;0.30;0.30;;;;;;;8.52;100.00;99724.88;5019943;28;20842;-77
2022/10/28 07:31:03;;;;;;;0.30;0.30;;;;;;;8.52;100.00;99713.31;5026627;28;20135;-78
2022/10/28 07:33:28;;;;;;;0.40;0.40;;;;;;;8.56;100.00;99726.16;5011359;28;20572;-76
2022/10/28 07:35:54;;;;;;;0.30;0.30;;;;;;;8.65;100.00;99729.53;5009089;28;20037;-77
2022/10/28 07:38:21;;;;;;;0.40;0.40;;;;;;;8.73;100.00;99733.97;5021205;28;20033;-77
2022/10/28 07:40:46;;;;;;;0.30;0.30;;;;;;;8.79;100.00;99734.06;5024407;28;20037;-75
2022/10/28 07:43:12;;;;;;;0.30;0.30;;;;;;;8.86;100.00;99744.00;5004283;28;20033;-76
2022/10/28 07:45:38;;;;;;;0.40;0.40;;;;;;;8.93;100.00;99756.47;5024477;28;20040;-76
2022/10/28 07:48:04;;;;;;;0.30;0.30;;;;;;;9.02;100.00;99776.78;5009134;28;20044;-75
2022/10/28 07:50:29;;;;;;;0.30;0.30;;;;;;;9.02;100.00;99768.75;4992989;28;20041;-76
2022/10/28 07:52:55;;;;;;;0.30;0.30;;;;;;;9.05;100.00;99772.91;5024964;28;20087;-75
2022/10/28 07:55:20;;;;;;;0.40;0.40;;;;;;;9.17;100.00;99779.41;4989522;28;20056;-76
2022/10/28 07:57:47;;;;;;;0.40;0.40;;;;;;;9.20;100.00;99784.38;5027851;28;20056;-75
2022/10/28 08:00:13;;;;;;;0.30;0.30;;;;;;;9.22;100.00;99782.34;5006809;28;20026;-76
2022/10/28 08:02:38;;;;;;;0.40;0.40;;;;;;;9.31;100.00;99801.00;4990761;28;20268;-76
2022/10/28 08:05:05;;;;;;;0.30;0.30;;;;;;;9.36;100.00;99798.56;5005505;28;20036;-77
2022/10/28 08:07:30;;;;;;;0.38;0.38;;;;;;;9.49;100.00;99801.38;5021618;28;20044;-76
2022/10/28 08:09:57;;;;;;;0.40;0.40;;;;;;;9.56;100.00;99804.97;5029216;28;20029;-76
2022/10/28 08:12:23;;;;;;;0.40;0.40;;;;;;;9.57;100.00;99805.78;4993849;28;20064;-77
2022/10/28 08:14:49;;;;;;;0.40;0.40;;;;;;;9.62;100.00;99803.34;5007445;28;20061;-76
2022/10/28 08:17:14;;;;;;;0.40;0.40;;;;;;;9.82;100.00;99823.16;4993551;28;20056;-77
2022/10/28 08:19:40;;;;;;;0.40;0.40;;;;;;;9.94;100.00;99812.72;5007985;28;20029;-75
2022/10/28 08:22:06;;;;;;;0.30;0.30;;;;;;;10.17;100.00;99814.34;5007643;28;20056;-76
2022/10/28 08:24:31;;;;;;;0.40;0.40;;;;;;;10.70;100.00;99822.72;4996793;28;20033;-77
2022/10/28 08:26:57;;;;;;;0.40;0.40;;;;;;;11.05;100.00;99836.94;4995082;28;20056;-77
2022/10/28 08:29:23;;;;;;;0.50;0.50;;;;;;;11.40;100.00;99845.72;5010343;28;20087;-76
2022/10/28 08:31:48;;;;;;;0.50;0.50;;;;;;;12.39;100.00;99848.72;5009294;28;20052;-76
2022/10/28 08:34:14;;;;;;;0.40;0.40;;;;;;;13.30;100.00;99850.50;5003219;28;20025;-76
2022/10/28 08:36:40;;;;;;;0.50;0.50;;;;;;;13.78;100.00;99855.41;4995030;28;20065;-76
2022/10/28 08:39:05;;;;;;;0.52;0.52;;;;;;;14.63;100.00;99844.06;5010953;28;20044;-80
2022/10/28 08:41:59;;;;;;;0.50;0.50;;;;;;;15.06;100.00;99837.75;5023154;28;20033;-76
2022/10/28 08:44:49;;;;;;;0.50;0.50;;;;;;;15.41;100.00;99856.03;5040208;28;20051;-75
2022/10/28 08:47:39;;;;;;;0.50;0.50;;;;;;;15.58;100.00;99860.56;5009548;28;20033;-76
2022/10/28 08:50:14;;;;;;;0.50;0.50;;;;;;;15.67;99.84;99858.38;5007792;28;20033;-76
2022/10/28 08:53:00;;;;;;;0.50;0.50;;;;;;;15.52;100.00;99863.38;4993744;28;20077;-77
2022/10/28 08:55:30;;;;;;;0.50;0.50;;;;;;;15.75;99.53;99874.31;5007752;28;20030;-77
2022/10/28 08:58:11;;;;;;;0.50;0.50;;;;;;;16.16;97.72;99872.63;5028594;28;20037;-84
2022/10/28 09:00:37;;;;;;;0.55;0.55;;;;;;;16.59;94.79;99878.75;5028328;28;20100;-85
2022/10/28 09:03:17;;;;;;;0.52;0.52;;;;;;;17.01;93.42;99865.88;5010945;28;20041;-85
2022/10/28 09:05:46;;;;;;;0.70;0.70;;;;;;;17.47;90.12;99890.44;5006864;28;20022;-85
2022/10/28 09:08:23;;;;;;;0.50;0.50;;;;;;;17.67;89.18;99882.66;5013871;28;20053;-86
2022/10/28 09:11:12;;;;;;;0.70;0.70;;;;;;;17.87;88.99;99895.00;5028990;28;20079;-86
2022/10/28 09:14:02;;;;;;;1.02;1.02;;;;;;;18.15;88.39;99892.25;5020829;28;20402;-85
2022/10/28 09:17:03;;;;;;;0.60;0.60;;;;;;;18.40;85.68;99886.38;5012638;28;20030;-85
2022/10/28 09:19:44;;;;;;;0.60;0.60;;;;;;;18.58;85.50;99898.06;4991190;28;20480;-85
2022/10/28 09:22:15;;;;;;;1.73;0.90;;;;;;;18.72;83.88;99901.25;5012178;28;20060;-85
2022/10/28 09:24:52;;;;;;;0.90;0.73;;;;;;;18.85;83.15;99890.84;5013242;28;20169;-86
2022/10/28 09:27:46;;;;;;;0.85;0.80;;;;;;;18.97;82.57;99900.81;5000933;28;20124;-85
2022/10/28 09:30:42;;;;;;;0.73;0.73;;;;;;;19.08;82.36;99910.78;5011462;28;20418;-85
2022/10/28 09:33:16;;;;;;;1.20;0.98;;;;;;;19.38;82.83;99898.59;5024040;28;20065;-85
2022/10/28 09:35:43;;;;;;;3.22;1.20;;;;;;;19.81;81.11;99911.38;5012833;28;20128;-86
2022/10/28 09:38:18;;;;;;;1.40;1.02;;;;;;;19.11;83.10;99908.38;4998059;28;20543;-85
2022/10/28 09:40:51;;;;;;;5.45;4.95;;;;;;;19.69;81.75;99916.97;5028100;28;20029;-86
2022/10/28 09:43:34;;;;;;;6.20;1.35;;;;;;;20.07;80.43;99923.34;5032490;28;20104;-85
2022/10/28 09:46:06;;;;;;;6.38;1.33;;;;;;;20.36;78.42;99920.31;4999728;28;20087;-85
2022/10/28 09:48:38;;;;;;;8.65;1.40;;;;;;;20.61;77.75;99923.28;5021851;28;20065;-86
2022/10/28 09:51:04;;;;;;;8.85;2.05;;;;;;;20.73;76.79;99930.47;5016081;28;20036;-86
2022/10/28 09:53:52;;;;;;;5.80;1.80;;;;;;;21.16;77.32;99923.84;5013872;28;20121;-85
2022/10/28 09:56:18;;;;;;;3.47;1.30;;;;;;;21.62;74.98;99917.75;4995339;28;20446;-85
2022/10/28 09:58:47;;;;;;;5.57;1.38;;;;;;;21.30;76.72;99937.84;5032494;28;20033;-86
2022/10/28 10:01:16;;;;;;;6.15;1.50;;;;;;;18.29;86.52;99936.28;5016131;28;20474;-86
2022/10/28 10:03:42;;;;;;;6.20;1.20;;;;;;;16.61;97.19;99933.66;4995232;28;20132;-85
2022/10/28 10:06:14;;;;;;;4.30;0.95;;;;;;;16.39;100.00;99944.25;5028325;28;20029;-85
2022/10/28 10:08:40;;;;;;;5.20;1.60;;;;;;;16.01;100.00;99945.47;5014560;28;20063;-86
2022/10/28 10:11:19;;;;;;;3.08;1.40;;;;;;;15.81;100.00;99945.75;5012682;28;20483;-86
2022/10/28 10:13:45;;;;;;;5.82;1.48;;;;;;;15.30;100.00;99941.59;5008225;28;20036;-85
2022/10/28 10:16:20;;;;;;;6.57;1.42;;;;;;;15.09;100.00;99961.84;5032241;28;20021;-85
2022/10/28 10:18:50;;;;;;;4.10;1.35;;;;;;;15.11;100.00;99963.28;5015999;28;20022;-86
2022/10/28 10:21:18;;;;;;;4.05;1.23;;;;;;;15.34;100.00;99949.03;4998056;28;20029;-86
2022/10/28 10:23:44;;;;;;;5.60;1.27;;;;;;;15.16;100.00;99951.75;5014132;28;20057;-86
2022/10/28 10:26:15;;;;;;;8.20;2.13;;;;;;;14.65;100.00;99950.19;5022363;28;20029;-86
2022/10/28 10:28:47;;;;;;;8.43;2.70;;;;;;;14.25;100.00;99947.78;5024522;28;20040;-87
2022/10/28 10:31:22;;;;;;;4.53;1.33;;;;;;;14.25;100.00;99961.31;5023903;28;20026;-86
2022/10/28 10:33:49;;;;;;;4.28;1.45;;;;;;;14.21;100.00;99957.38;4995957;28;20064;-86
2022/10/28 10:36:16;;;;;;;6.07;1.80;;;;;;;14.24;100.00;99960.47;4998870;28;20065;-86
2022/10/28 10:39:02;;;;;;;6.95;1.75;;;;;;;14.44;100.00;99944.09;5010911;28;20329;-86
2022/10/28 10:41:39;;;;;;;9.23;1.65;;;;;;;14.60;100.00;99958.13;5014349;28;20586;-87
2022/10/28 10:44:19;;;;;;;5.93;1.35;;;;;;;14.60;100.00;99958.13;5030269;28;20056;-86
2022/10/28 10:47:05;;;;;;;11.52;2.63;;;;;;;14.42;100.00;99967.84;5031515;28;20063;-86
2022/10/28 10:49:31;;;;;;;12.18;2.33;;;;;;;14.35;100.00;99948.13;5033754;28;20041;-86
2022/10/28 10:52:02;;;;;;;7.55;1.38;;;;;;;14.39;100.00;99943.09;5031248;28;20071;-86
2022/10/28 10:54:31;;;;;;;6.80;1.80;;;;;;;14.67;100.00;99939.97;4998792;28;20040;-86
2022/10/28 10:57:15;;;;;;;5.82;2.25;;;;;;;15.05;100.00;99956.03;5017318;28;20116;-89
2022/10/28 10:59:44;;;;;;;9.88;1.88;;;;;;;15.21;100.00;99959.19;5014952;28;20387;-87
2022/10/28 11:02:39;;;;;;;11.52;2.20;;;;;;;15.30;100.00;99961.38;5013707;28;20034;-86
2022/10/28 11:05:09;;;;;;;7.88;3.03;;;;;;;15.17;100.00;99958.81;5021239;28;20029;-87
2022/10/28 11:07:36;;;;;;;3.33;1.33;;;;;;;15.15;100.00;99966.34;4995927;28;20041;-86
2022/10/28 11:10:03;;;;;;;5.68;2.15;;;;;;;15.02;100.00;99948.34;5007639;28;20494;-86
2022/10/28 11:12:37;;;;;;;7.72;2.10;;;;;;;15.29;100.00;99970.53;5029858;28;20109;-86
2022/10/28 11:15:15;;;;;;;6.40;1.67;;;;;;;15.77;100.00;99977.06;4997817;28;20048;-86
2022/10/28 11:17:53;;;;;;;5.57;1.77;;;;;;;15.95;100.00;99966.19;5029433;28;20037;-87
2022/10/28 11:20:28;;;;;;;4.15;0.98;;;;;;;16.01;100.00;99975.31;5029613;28;20111;-86
2022/10/28 11:23:03;;;;;;;7.22;1.73;;;;;;;16.15;100.00;99976.75;5025767;28;20476;-86
2022/10/28 11:25:38;;;;;;;6.90;2.17;;;;;;;17.78;100.00;99967.94;5027994;28;20033;-86
2022/10/28 11:28:34;;;;;;;8.80;1.85;;;;;;;18.75;100.00;99977.03;5029435;28;20040;-86
2022/10/28 11:31:44;;;;;;;6.93;1.60;;;;;;;19.27;95.75;99960.34;5025941;28;20060;-86
2022/10/28 11:34:31;;;;;;;8.10;1.95;;;;;;;19.66;93.22;99977.50;4997645;28;20025;-86
2022/10/28 11:37:25;;;;;;;7.78;1.80;;;;;;;20.06;91.56;99989.94;5012020;28;20227;-86
2022/10/28 11:40:15;;;;;;;8.27;1.35;;;;;;;20.56;88.39;99990.69;5024499;28;20052;-86
2022/10/28 11:42:44;;;;;;;7.78;1.60;;;;;;;20.79;88.19;99989.50;5030345;28;20040;-86
2022/10/28 11:45:16;;;;;;;4.93;1.67;;;;;;;20.32;86.49;99979.25;5026679;28;20083;-86